Time;durP1;ratioP1;P1;durP2;ratioP2;P2;SDS_P1;SDS_P2;PMS_P1;PMS_P2;Temp;Humidity;BMP_temperature;BMP_pressure;BME280_temperature;BME280_humidity;BME280_pressure;Samples;Min_cycle;Max_cycle;Signal;HPM_P1;HPM_P2
2020/12/09 00:01:30;;;;;;;13.00;9.35;;;5.30;84.40;;;;;;5157470;27;20026;-77
2020/12/09 00:03:57;;;;;;;13.20;8.80;;;5.30;84.40;;;;;;5138791;27;20481;-78
2020/12/09 00:06:34;;;;;;;12.57;8.73;;;5.20;84.40;;;;;;5138782;27;20038;-78
2020/12/09 00:09:00;;;;;;;11.60;8.40;;;5.20;84.40;;;;;;5138487;27;20370;-78
2020/12/09 00:11:26;;;;;;;12.52;8.23;;;5.10;84.40;;;;;;5138794;27;20033;-77
2020/12/09 00:13:52;;;;;;;11.13;8.63;;;5.00;84.50;;;;;;5138947;27;20026;-78
2020/12/09 00:16:18;;;;;;;11.30;8.23;;;5.00;84.70;;;;;;5138841;27;20358;-77
2020/12/09 00:18:44;;;;;;;12.82;9.02;;;5.00;84.70;;;;;;5138717;27;20018;-78
2020/12/09 00:21:16;;;;;;;10.60;8.48;;;5.00;84.70;;;;;;5138594;27;20027;-78
2020/12/09 00:23:42;;;;;;;12.52;8.73;;;5.00;84.70;;;;;;5157089;27;20035;-78
2020/12/09 00:26:07;;;;;;;13.05;9.00;;;5.00;84.60;;;;;;5156964;27;20102;-77
2020/12/09 00:28:33;;;;;;;11.57;8.55;;;5.00;84.50;;;;;;5138291;27;20034;-78
2020/12/09 00:30:59;;;;;;;12.65;8.52;;;5.00;84.50;;;;;;5156991;27;20373;-78
2020/12/09 00:33:24;;;;;;;11.95;8.57;;;5.00;84.50;;;;;;5138404;27;20025;-78
2020/12/09 00:35:50;;;;;;;12.70;8.82;;;5.00;84.40;;;;;;5138226;27;20021;-78
2020/12/09 00:38:17;;;;;;;11.77;8.73;;;5.00;84.30;;;;;;5138457;27;20027;-77
2020/12/09 00:40:43;;;;;;;11.85;8.57;;;5.00;84.30;;;;;;5138308;27;20023;-78
2020/12/09 00:43:09;;;;;;;12.43;9.07;;;5.00;84.30;;;;;;5137943;27;20018;-78
2020/12/09 00:45:34;;;;;;;13.15;8.80;;;4.90;84.20;;;;;;5138091;27;20118;-78
2020/12/09 00:48:00;;;;;;;11.98;8.55;;;4.90;84.20;;;;;;5137796;27;20019;-77
2020/12/09 00:50:29;;;;;;;14.27;9.15;;;4.90;84.20;;;;;;5138207;27;20378;-77
2020/12/09 00:52:56;;;;;;;13.25;8.90;;;4.80;84.20;;;;;;5138262;27;20101;-78
2020/12/09 00:55:21;;;;;;;11.80;8.32;;;4.80;84.30;;;;;;5156384;27;20502;-78
2020/12/09 00:57:47;;;;;;;11.63;8.00;;;4.80;84.20;;;;;;5133114;27;20023;-78
2020/12/09 01:00:13;;;;;;;13.20;9.18;;;4.80;84.20;;;;;;5137557;27;20018;-78
2020/12/09 01:02:39;;;;;;;13.68;9.40;;;4.80;84.20;;;;;;5138207;27;20102;-78
2020/12/09 01:05:07;;;;;;;13.18;8.85;;;4.80;84.20;;;;;;5156424;27;20030;-78
2020/12/09 01:07:33;;;;;;;13.82;9.68;;;4.80;84.10;;;;;;5156051;27;20091;-78
2020/12/09 01:09:58;;;;;;;12.77;9.05;;;4.80;84.10;;;;;;5156095;27;20015;-77
2020/12/09 01:12:25;;;;;;;14.23;9.63;;;4.80;84.20;;;;;;5137570;27;20304;-78
2020/12/09 01:14:50;;;;;;;14.35;9.80;;;4.70;84.20;;;;;;5155957;27;20067;-77
2020/12/09 01:17:17;;;;;;;13.63;9.10;;;4.70;84.30;;;;;;5137288;27;20023;-77
2020/12/09 01:19:43;;;;;;;17.10;11.10;;;4.70;84.30;;;;;;5137465;27;20022;-77
2020/12/09 01:22:09;;;;;;;15.40;10.45;;;4.60;84.20;;;;;;5155553;27;20113;-78
2020/12/09 01:24:36;;;;;;;15.90;10.43;;;4.60;84.30;;;;;;5155861;27;20052;-77
2020/12/09 01:27:01;;;;;;;17.42;11.05;;;4.50;84.40;;;;;;5092412;28;20040;-78
2020/12/09 01:29:27;;;;;;;19.00;12.00;;;4.50;84.40;;;;;;5092143;28;20420;-77
2020/12/09 01:31:59;;;;;;;18.77;11.63;;;4.50;84.40;;;;;;5074945;28;20083;-78
2020/12/09 01:34:26;;;;;;;18.80;12.38;;;4.40;84.30;;;;;;5075255;28;20025;-77
2020/12/09 01:36:52;;;;;;;18.08;12.10;;;4.40;84.40;;;;;;5092256;28;20044;-78
2020/12/09 01:42:50;;;;;;;17.58;11.60;;;4.40;84.50;;;;;;5091960;28;20043;-78
2020/12/09 01:45:16;;;;;;;17.92;11.65;;;4.40;84.50;;;;;;5091715;28;20036;-78
2020/12/09 01:47:44;;;;;;;18.00;11.95;;;4.40;84.50;;;;;;5074158;28;20123;-78
2020/12/09 01:50:10;;;;;;;19.85;12.40;;;4.40;84.40;;;;;;5074275;28;20055;-77
2020/12/09 01:52:37;;;;;;;18.73;11.93;;;4.40;84.30;;;;;;5074345;28;20375;-77
2020/12/09 01:55:03;;;;;;;21.10;13.13;;;4.40;84.30;;;;;;5074125;28;20050;-77
2020/12/09 01:57:28;;;;;;;19.75;12.23;;;4.40;84.30;;;;;;5088829;27;20122;-78
2020/12/09 01:59:54;;;;;;;18.98;12.30;;;4.40;84.30;;;;;;5132606;27;20441;-78
2020/12/09 02:02:20;;;;;;;19.88;12.55;;;4.30;84.20;;;;;;5134041;27;20146;-78
2020/12/09 02:04:46;;;;;;;18.73;11.73;;;4.30;84.20;;;;;;5133787;27;20051;-77
2020/12/09 02:07:12;;;;;;;17.95;11.45;;;4.40;84.30;;;;;;5133907;27;20026;-78
2020/12/09 02:09:38;;;;;;;17.10;11.15;;;4.40;84.30;;;;;;5133909;27;20438;-78
2020/12/09 02:12:04;;;;;;;17.98;11.48;;;4.40;84.20;;;;;;5132486;27;20026;-77
2020/12/09 02:14:29;;;;;;;17.58;11.90;;;4.40;84.80;;;;;;5132571;27;20019;-78
2020/12/09 02:16:57;;;;;;;22.00;13.25;;;4.40;84.20;;;;;;5132339;27;20019;-77
2020/12/09 02:19:24;;;;;;;19.50;12.65;;;4.40;84.10;;;;;;5133843;27;20498;-78
2020/12/09 02:21:50;;;;;;;18.00;11.95;;;4.30;84.10;;;;;;5132266;27;20103;-77
2020/12/09 02:24:16;;;;;;;18.83;11.95;;;4.30;84.20;;;;;;5132329;27;20038;-78
2020/12/09 02:26:48;;;;;;;19.15;12.63;;;4.30;84.20;;;;;;5132404;27;20015;-77
2020/12/09 02:29:14;;;;;;;21.17;13.48;;;4.30;84.30;;;;;;5132205;27;20019;-77
2020/12/09 02:31:40;;;;;;;20.35;13.05;;;4.20;84.20;;;;;;5132015;27;20047;-78
2020/12/09 02:34:07;;;;;;;17.67;11.95;;;4.20;84.30;;;;;;5133268;27;20478;-78
2020/12/09 02:36:33;;;;;;;20.48;12.48;;;4.20;84.30;;;;;;5133748;27;20023;-77
2020/12/09 02:38:59;;;;;;;18.88;12.35;;;4.20;84.30;;;;;;5132128;27;20023;-78
2020/12/09 02:41:25;;;;;;;20.85;12.57;;;4.10;84.30;;;;;;5133585;27;20072;-78
2020/12/09 02:43:51;;;;;;;17.40;11.57;;;4.10;84.30;;;;;;5132463;27;20458;-78
2020/12/09 02:46:17;;;;;;;20.17;12.88;;;4.00;84.30;;;;;;5132613;27;20019;-78
2020/12/09 02:48:42;;;;;;;18.45;11.70;;;4.00;84.30;;;;;;5134374;27;20351;-77
2020/12/09 02:51:08;;;;;;;20.45;13.02;;;4.00;84.30;;;;;;5134021;28;20084;-77
2020/12/09 02:53:34;;;;;;;21.42;12.15;;;4.00;84.40;;;;;;5132826;28;20466;-78
2020/12/09 02:55:59;;;;;;;18.30;12.30;;;4.00;84.30;;;;;;5132818;28;20051;-78
2020/12/09 02:58:26;;;;;;;22.98;13.00;;;4.00;84.30;;;;;;5134182;28;20058;-78
2020/12/09 03:00:52;;;;;;;19.58;11.90;;;4.00;84.20;;;;;;5132746;28;20030;-77
2020/12/09 03:03:18;;;;;;;18.52;12.68;;;4.10;84.10;;;;;;5132553;28;20019;-78
2020/12/09 03:05:44;;;;;;;19.55;12.10;;;4.10;84.00;;;;;;5132491;28;20386;-77
2020/12/09 03:08:09;;;;;;;17.98;11.80;;;4.20;84.00;;;;;;5133785;28;20023;-78
2020/12/09 03:10:35;;;;;;;17.13;11.27;;;4.20;83.80;;;;;;5133669;28;20058;-78
2020/12/09 03:13:01;;;;;;;18.00;10.32;;;4.30;83.80;;;;;;5132261;28;20039;-78
2020/12/09 03:15:27;;;;;;;16.95;11.02;;;4.40;83.70;;;;;;5133621;27;20433;-78
2020/12/09 03:17:53;;;;;;;16.58;11.80;;;4.40;83.60;;;;;;5133579;28;20106;-77
2020/12/09 03:20:18;;;;;;;16.98;11.18;;;4.50;83.50;;;;;;5132212;28;20111;-78
2020/12/09 03:22:44;;;;;;;19.00;11.90;;;4.50;83.40;;;;;;5132326;28;20023;-77
2020/12/09 03:25:10;;;;;;;18.38;11.70;;;4.50;83.30;;;;;;5132131;28;20084;-78
2020/12/09 03:27:35;;;;;;;17.88;11.18;;;4.60;83.30;;;;;;5132087;28;20121;-78
2020/12/09 03:30:01;;;;;;;16.65;11.70;;;4.60;83.30;;;;;;5132106;28;20454;-78
2020/12/09 03:32:27;;;;;;;18.73;12.02;;;4.60;83.20;;;;;;5131988;28;20547;-78
2020/12/09 03:34:52;;;;;;;17.73;11.18;;;4.70;83.30;;;;;;5133498;28;20098;-78
2020/12/09 03:37:18;;;;;;;17.08;11.32;;;4.70;83.20;;;;;;5132218;28;20079;-78
2020/12/09 03:39:43;;;;;;;17.17;10.80;;;4.70;83.20;;;;;;5131659;28;20019;-77
2020/12/09 03:42:09;;;;;;;15.63;10.57;;;4.70;83.20;;;;;;5133111;28;20171;-77
2020/12/09 03:44:35;;;;;;;17.27;11.45;;;4.80;83.30;;;;;;5134022;27;20015;-78
2020/12/09 03:47:04;;;;;;;19.77;12.38;;;4.80;83.20;;;;;;5135814;27;20458;-77
2020/12/09 03:49:30;;;;;;;18.83;12.02;;;4.80;83.10;;;;;;5137069;27;20030;-77
2020/12/09 03:51:55;;;;;;;22.77;13.43;;;4.80;83.20;;;;;;5135754;27;20012;-77
2020/12/09 03:54:21;;;;;;;31.35;14.25;;;4.90;83.30;;;;;;5135957;27;20037;-78
2020/12/09 03:56:46;;;;;;;42.30;14.02;;;4.90;83.30;;;;;;5137481;27;20126;-77
2020/12/09 03:59:12;;;;;;;61.53;15.35;;;4.90;83.40;;;;;;5135699;27;20023;-77
2020/12/09 04:01:38;;;;;;;37.03;14.98;;;4.90;83.60;;;;;;5135878;27;20029;-78
2020/12/09 04:04:03;;;;;;;36.38;11.63;;;4.90;83.70;;;;;;5135600;27;20389;-77
2020/12/09 04:06:29;;;;;;;47.75;14.98;;;4.90;83.90;;;;;;5136816;27;20075;-78
2020/12/09 04:08:54;;;;;;;47.30;14.75;;;4.90;84.00;;;;;;5136875;27;20068;-77
2020/12/09 04:11:20;;;;;;;80.78;15.93;;;4.90;84.20;;;;;;5136750;27;20050;-78
2020/12/09 04:13:46;;;;;;;80.72;15.95;;;4.90;84.30;;;;;;5135276;27;20049;-77
2020/12/09 04:16:11;;;;;;;79.80;15.57;;;4.90;84.40;;;;;;5135245;27;20023;-77
2020/12/09 04:18:37;;;;;;;72.00;15.15;;;4.90;84.60;;;;;;5135010;27;20430;-77
2020/12/09 04:21:04;;;;;;;43.63;15.13;;;5.00;84.60;;;;;;5135257;27;20147;-77
2020/12/09 04:23:29;;;;;;;34.17;14.95;;;5.00;84.70;;;;;;5136878;27;20027;-78
2020/12/09 04:25:55;;;;;;;51.58;16.20;;;5.00;84.80;;;;;;5135777;27;20114;-78
2020/12/09 04:28:21;;;;;;;53.30;17.42;;;5.00;84.70;;;;;;5135190;27;20096;-77
2020/12/09 04:30:46;;;;;;;68.65;16.90;;;5.10;84.90;;;;;;5136301;27;20023;-77
2020/12/09 04:33:12;;;;;;;34.75;14.82;;;5.10;84.90;;;;;;5157198;27;20054;-77
2020/12/09 04:35:39;;;;;;;56.50;15.50;;;5.10;85.00;;;;;;5138518;27;20041;-78
2020/12/09 04:38:05;;;;;;;55.40;15.80;;;5.10;85.00;;;;;;5138363;27;20019;-77
2020/12/09 04:40:31;;;;;;;61.20;16.73;;;5.10;85.10;;;;;;5156752;27;20075;-78
2020/12/09 04:42:59;;;;;;;46.92;16.55;;;5.20;85.10;;;;;;5138109;27;20075;-77
2020/12/09 04:45:29;;;;;;;36.45;15.10;;;5.20;85.00;;;;;;5138183;27;20040;-78
2020/12/09 04:48:10;;;;;;;54.47;15.00;;;5.20;85.00;;;;;;5137651;27;20022;-77
2020/12/09 04:50:51;;;;;;;38.17;15.68;;;5.20;85.00;;;;;;5138152;27;20122;-78
2020/12/09 04:53:25;;;;;;;91.15;18.65;;;5.20;85.00;;;;;;5157056;27;20075;-77
2020/12/09 04:55:54;;;;;;;58.97;18.50;;;5.30;85.10;;;;;;5136845;27;20064;-78
2020/12/09 04:58:43;;;;;;;35.75;17.23;;;5.30;85.10;;;;;;5138213;27;20026;-78
2020/12/09 05:01:12;;;;;;;34.50;16.30;;;5.20;85.20;;;;;;5156260;27;20027;-77
2020/12/09 05:03:44;;;;;;;35.50;17.00;;;5.20;85.20;;;;;;5137864;27;20042;-78
2020/12/09 05:06:13;;;;;;;32.33;17.35;;;5.20;85.30;;;;;;5137889;27;20080;-75
2020/12/09 05:08:47;;;;;;;28.17;16.38;;;5.20;85.20;;;;;;5137481;27;20023;-74
2020/12/09 05:11:14;;;;;;;;;;;5.20;85.30;;;;;;5138026;27;20076;-75
2020/12/09 05:13:42;;;;;;;26.23;16.05;;;5.30;85.30;;;;;;5156097;27;20274;-75
2020/12/09 05:16:16;;;;;;;28.48;16.65;;;5.30;85.20;;;;;;5137395;27;20075;-75
2020/12/09 05:18:43;;;;;;;29.10;17.33;;;5.30;85.10;;;;;;5137282;27;20101;-75
2020/12/09 05:21:20;;;;;;;31.38;18.23;;;5.40;85.10;;;;;;5137336;27;20488;-75
2020/12/09 05:23:54;;;;;;;28.73;17.25;;;5.40;85.70;;;;;;5137097;27;20462;-74
2020/12/09 05:26:23;;;;;;;28.30;17.25;;;5.40;84.90;;;;;;5137460;27;20023;-74
2020/12/09 05:29:04;;;;;;;33.92;18.30;;;5.40;84.90;;;;;;5137233;27;20026;-74
2020/12/09 05:31:29;;;;;;;30.38;18.67;;;5.40;84.80;;;;;;5155581;27;20125;-74
2020/12/09 05:33:55;;;;;;;33.92;20.00;;;5.40;84.80;;;;;;5155791;27;20054;-74
2020/12/09 05:36:21;;;;;;;37.17;21.48;;;5.50;84.80;;;;;;5137159;27;20496;-74
2020/12/09 05:39:05;;;;;;;30.27;17.92;;;5.40;84.60;;;;;;5137021;27;20366;-75
2020/12/09 05:41:33;;;;;;;31.70;18.67;;;5.30;84.50;;;;;;5155325;27;20079;-74
2020/12/09 05:44:03;;;;;;;36.13;21.65;;;5.30;84.60;;;;;;5155486;27;20038;-74
2020/12/09 05:46:29;;;;;;;31.13;18.73;;;5.20;84.60;;;;;;5137003;27;20030;-75
2020/12/09 05:48:55;;;;;;;31.98;18.80;;;5.20;84.60;;;;;;5155933;27;20026;-74
2020/12/09 05:51:20;;;;;;;34.28;20.52;;;5.30;84.70;;;;;;5136714;27;20168;-74
2020/12/09 05:53:47;;;;;;;33.60;20.65;;;5.20;85.30;;;;;;5136869;27;20075;-74
2020/12/09 05:56:16;;;;;;;34.72;20.65;;;5.30;84.60;;;;;;5136920;27;20378;-75
2020/12/09 05:58:47;;;;;;;32.75;19.95;;;5.30;84.50;;;;;;5137158;27;20023;-74
2020/12/09 06:01:15;;;;;;;36.47;20.23;;;5.20;84.50;;;;;;5136570;27;20191;-74
2020/12/09 06:03:52;;;;;;;35.00;19.42;;;5.30;84.60;;;;;;5136353;27;20030;-74
2020/12/09 06:06:19;;;;;;;32.97;20.00;;;5.30;84.60;;;;;;5136273;27;20022;-75
2020/12/09 06:08:50;;;;;;;37.92;20.98;;;5.40;84.50;;;;;;5154798;27;20033;-74
2020/12/09 06:11:26;;;;;;;33.70;20.23;;;5.40;84.40;;;;;;5154981;27;20142;-74
2020/12/09 06:13:53;;;;;;;34.80;19.73;;;5.40;84.40;;;;;;5136213;27;20114;-75
2020/12/09 06:16:20;;;;;;;35.08;20.45;;;5.40;84.30;;;;;;5136589;27;20382;-74
2020/12/09 06:18:56;;;;;;;36.20;21.55;;;5.50;84.20;;;;;;5136535;27;20027;-75
2020/12/09 06:21:24;;;;;;;33.83;19.70;;;5.40;84.20;;;;;;5136393;27;20019;-74
2020/12/09 06:23:53;;;;;;;34.67;20.98;;;5.40;84.20;;;;;;5154995;27;20023;-74
2020/12/09 06:26:19;;;;;;;35.70;21.10;;;5.40;84.20;;;;;;5136448;27;20047;-75
2020/12/09 06:28:51;;;;;;;35.90;20.92;;;5.40;84.10;;;;;;5136404;27;20481;-74
2020/12/09 06:31:19;;;;;;;34.45;19.30;;;5.40;84.10;;;;;;5154693;27;20038;-75
2020/12/09 06:33:47;;;;;;;36.63;20.92;;;5.40;84.10;;;;;;5154586;27;20071;-74
2020/12/09 06:36:23;;;;;;;36.05;21.02;;;5.40;84.00;;;;;;5135978;27;20019;-74
2020/12/09 06:39:04;;;;;;;38.30;21.73;;;5.40;84.00;;;;;;5135853;27;20015;-74
2020/12/09 06:41:37;;;;;;;36.30;21.67;;;5.40;84.10;;;;;;5135650;27;20083;-74
2020/12/09 06:44:03;;;;;;;38.43;22.40;;;5.40;84.10;;;;;;5154596;27;20015;-75
2020/12/09 06:46:41;;;;;;;39.08;22.70;;;5.40;84.00;;;;;;5136014;27;20019;-74
2020/12/09 06:49:28;;;;;;;39.03;21.70;;;5.40;84.00;;;;;;5154572;27;20029;-75
2020/12/09 06:52:09;;;;;;;37.58;22.13;;;5.40;84.00;;;;;;5154994;27;20050;-74
2020/12/09 06:54:43;;;;;;;36.30;21.70;;;5.50;84.00;;;;;;5136277;27;20045;-74
2020/12/09 06:57:12;;;;;;;43.08;24.63;;;5.50;83.90;;;;;;5154464;27;20381;-74
2020/12/09 06:59:37;;;;;;;42.60;23.10;;;5.50;83.90;;;;;;5136200;27;20042;-74
2020/12/09 07:02:07;;;;;;;39.53;22.27;;;5.40;83.80;;;;;;5136238;27;20484;-75
2020/12/09 07:04:55;;;;;;;41.42;23.52;;;5.50;83.90;;;;;;5135732;27;20022;-74
2020/12/09 07:07:27;;;;;;;41.92;23.58;;;5.40;83.70;;;;;;5135692;27;20030;-74
2020/12/09 07:09:53;;;;;;;42.67;24.23;;;5.40;83.80;;;;;;5154114;27;20028;-74
2020/12/09 07:12:19;;;;;;;45.70;26.33;;;5.40;83.80;;;;;;5135727;27;20029;-74
2020/12/09 07:14:53;;;;;;;42.17;23.60;;;5.50;83.90;;;;;;5135833;27;20030;-74
2020/12/09 07:17:26;;;;;;;;;;;5.50;83.80;;;;;;5136057;27;20019;-75
2020/12/09 07:19:53;;;;;;;47.55;23.83;;;5.40;83.70;;;;;;5138570;27;19903;-75
2020/12/09 07:22:19;;;;;;;44.95;22.27;;;5.40;83.90;;;;;;5139683;27;20019;-75
2020/12/09 07:24:46;;;;;;;47.22;23.85;;;5.40;83.90;;;;;;5158329;27;20030;-74
2020/12/09 07:27:12;;;;;;;42.47;22.35;;;5.40;84.00;;;;;;5158653;27;20541;-74
2020/12/09 07:29:42;;;;;;;52.67;24.80;;;5.40;83.90;;;;;;5139502;27;20050;-74
2020/12/09 07:32:08;;;;;;;47.10;24.30;;;5.40;84.50;;;;;;5157930;27;20058;-74
2020/12/09 07:34:54;;;;;;;44.80;24.00;;;5.30;83.70;;;;;;5158145;27;20091;-74
2020/12/09 07:37:27;;;;;;;53.22;25.10;;;5.30;83.90;;;;;;5157747;27;20096;-74
2020/12/09 07:39:54;;;;;;;44.70;22.40;;;5.30;84.10;;;;;;5139425;27;20033;-74
2020/12/09 07:42:22;;;;;;;45.90;24.20;;;5.20;84.20;;;;;;5139153;27;20022;-74
2020/12/09 07:44:49;;;;;;;58.83;23.20;;;5.30;84.30;;;;;;5139216;27;20024;-74
2020/12/09 07:47:27;;;;;;;80.03;22.05;;;5.30;84.20;;;;;;5139334;27;20022;-74
2020/12/09 07:50:04;;;;;;;51.58;21.75;;;5.30;84.10;;;;;;5139096;27;20023;-74
2020/12/09 07:52:35;;;;;;;56.05;20.88;;;5.20;84.00;;;;;;5139173;27;20129;-75
2020/12/09 07:55:06;;;;;;;53.90;21.02;;;5.20;84.20;;;;;;5157849;27;20029;-74
2020/12/09 07:57:34;;;;;;;48.45;21.10;;;5.20;84.30;;;;;;5139223;27;20015;-75
2020/12/09 08:00:02;;;;;;;56.65;19.45;;;5.10;84.30;;;;;;5157561;27;20094;-74
2020/12/09 08:02:29;;;;;;;75.75;18.88;;;5.20;84.30;;;;;;5138920;27;20023;-75
2020/12/09 08:05:14;;;;;;;65.70;18.13;;;5.10;84.20;;;;;;5138874;27;20022;-73
2020/12/09 08:07:57;;;;;;;55.88;18.63;;;5.10;84.30;;;;;;5139309;27;20022;-74
2020/12/09 08:10:30;;;;;;;66.35;18.25;;;5.10;84.20;;;;;;5138780;27;20011;-74
2020/12/09 08:13:00;;;;;;;;;;;5.00;84.20;;;;;;5139267;27;20026;-73
2020/12/09 08:15:26;;;;;;;42.03;18.70;;;5.00;84.20;;;;;;5138865;27;19903;-74
2020/12/09 08:17:52;;;;;;;50.72;19.00;;;4.90;84.20;;;;;;5138376;27;20063;-73
2020/12/09 08:20:17;;;;;;;40.65;18.48;;;4.80;84.10;;;;;;5138552;27;20500;-73
2020/12/09 08:22:51;;;;;;;44.50;20.25;;;4.80;84.00;;;;;;5138631;27;20023;-74
2020/12/09 08:25:17;;;;;;;;;;;4.80;84.00;;;;;;5139039;27;20358;-73
2020/12/09 08:27:44;;;;;;;49.10;20.65;;;4.70;83.80;;;;;;5157118;27;19951;-73
2020/12/09 08:30:25;;;;;;;52.97;18.48;;;4.60;83.90;;;;;;5136904;27;20030;-74
2020/12/09 08:32:58;;;;;;;51.65;19.52;;;4.60;83.90;;;;;;5138102;27;20389;-73
2020/12/09 08:35:24;;;;;;;49.72;23.45;;;4.50;83.90;;;;;;5156725;27;20029;-73
2020/12/09 08:37:50;;;;;;;65.75;22.92;;;4.50;83.90;;;;;;5156663;27;20030;-73
2020/12/09 08:40:16;;;;;;;56.35;20.17;;;4.50;84.00;;;;;;5156744;27;20431;-74
2020/12/09 08:42:53;;;;;;;35.83;18.13;;;4.50;83.80;;;;;;5138154;27;20488;-74
2020/12/09 08:45:19;;;;;;;45.30;19.23;;;4.40;83.70;;;;;;5156602;27;20023;-73
2020/12/09 08:47:44;;;;;;;45.58;19.08;;;4.40;83.70;;;;;;5138027;27;20383;-74
2020/12/09 08:50:10;;;;;;;42.92;18.95;;;4.40;83.60;;;;;;5138037;27;20067;-73
2020/12/09 08:52:36;;;;;;;43.45;20.83;;;4.40;83.60;;;;;;5156797;27;20023;-74
2020/12/09 08:55:02;;;;;;;40.55;19.02;;;4.30;83.60;;;;;;5156926;27;20019;-73
2020/12/09 08:57:28;;;;;;;52.90;20.35;;;4.30;83.50;;;;;;5138219;27;20022;-73
2020/12/09 08:59:53;;;;;;;57.40;19.05;;;4.30;83.40;;;;;;5159278;27;20043;-74
2020/12/09 09:02:19;;;;;;;76.72;19.63;;;4.30;83.40;;;;;;5138814;27;20020;-73
2020/12/09 09:04:44;;;;;;;33.20;19.13;;;4.20;83.40;;;;;;5158342;27;20079;-73
2020/12/09 09:07:10;;;;;;;44.25;17.25;;;4.20;83.50;;;;;;5140034;27;20022;-73
2020/12/09 09:09:36;;;;;;;52.80;18.05;;;4.20;83.50;;;;;;5137990;27;20405;-73
2020/12/09 09:12:01;;;;;;;42.70;19.70;;;4.20;83.30;;;;;;5137624;27;20026;-73
2020/12/09 09:14:27;;;;;;;30.00;17.50;;;4.20;83.30;;;;;;5140056;27;20029;-73
2020/12/09 09:16:53;;;;;;;36.53;19.02;;;4.20;83.50;;;;;;5157114;27;20030;-73
2020/12/09 09:19:18;;;;;;;42.00;17.63;;;4.30;83.60;;;;;;5156818;27;20049;-73
2020/12/09 09:21:44;;;;;;;35.55;19.55;;;4.30;83.50;;;;;;5138068;27;20122;-73
2020/12/09 09:24:10;;;;;;;34.42;19.75;;;4.40;83.20;;;;;;5156241;27;20411;-73
2020/12/09 09:26:36;;;;;;;36.33;19.48;;;4.30;83.20;;;;;;5138054;27;20118;-75
2020/12/09 09:29:03;;;;;;;36.42;18.90;;;4.30;83.10;;;;;;5137746;27;20027;-73
2020/12/09 09:31:28;;;;;;;50.10;17.10;;;4.40;83.30;;;;;;5134703;27;20551;-73
2020/12/09 09:33:54;;;;;;;35.30;18.75;;;4.40;83.20;;;;;;5134981;27;20020;-73
2020/12/09 09:36:20;;;;;;;42.25;18.50;;;4.40;83.20;;;;;;5135921;27;20019;-73
2020/12/09 09:42:08;;;;;;;36.80;18.90;;;4.40;83.10;;;;;;5134583;27;20100;-73
2020/12/09 09:44:33;;;;;;;37.22;20.13;;;4.40;83.00;;;;;;5133500;27;20056;-73
2020/12/09 09:46:59;;;;;;;33.95;18.75;;;4.50;83.10;;;;;;5133737;27;20027;-74
2020/12/09 09:49:25;;;;;;;31.63;18.90;;;4.50;83.10;;;;;;5134782;27;20084;-73
2020/12/09 09:51:52;;;;;;;31.38;16.77;;;4.50;83.10;;;;;;5133414;27;20074;-73
2020/12/09 09:54:19;;;;;;;35.47;18.95;;;4.50;82.90;;;;;;5134758;27;20423;-74
2020/12/09 09:56:45;;;;;;;35.67;18.42;;;4.50;82.80;;;;;;5133437;27;20134;-74
2020/12/09 09:59:11;;;;;;;31.45;16.88;;;4.50;82.80;;;;;;5134144;27;20130;-74
2020/12/09 10:01:37;;;;;;;39.78;17.00;;;4.50;82.80;;;;;;5133364;27;20213;-74
2020/12/09 10:04:06;;;;;;;32.50;17.15;;;4.40;82.70;;;;;;5133873;27;20024;-74
2020/12/09 10:06:33;;;;;;;30.83;18.45;;;4.40;82.70;;;;;;5133203;27;20106;-74
2020/12/09 10:08:59;;;;;;;33.17;17.42;;;4.40;82.70;;;;;;5134822;27;20493;-74
2020/12/09 10:11:25;;;;;;;32.55;18.05;;;4.40;82.60;;;;;;5134572;27;20020;-74
2020/12/09 10:13:52;;;;;;;41.90;17.95;;;4.40;82.60;;;;;;5133310;27;20019;-75
2020/12/09 10:16:26;;;;;;;43.83;17.90;;;4.30;82.40;;;;;;5133070;27;20389;-73
2020/12/09 10:18:52;;;;;;;29.52;16.67;;;4.30;82.50;;;;;;5133229;27;20042;-74
2020/12/09 10:21:25;;;;;;;31.75;17.75;;;4.20;82.60;;;;;;5132953;27;20027;-74
2020/12/09 10:23:52;;;;;;;29.25;17.13;;;4.10;82.70;;;;;;5134500;27;20035;-73
2020/12/09 10:26:18;;;;;;;36.28;19.35;;;4.20;82.70;;;;;;5134254;27;20031;-74
2020/12/09 10:28:45;;;;;;;30.73;17.75;;;4.20;82.90;;;;;;5132885;27;20031;-74
2020/12/09 10:31:11;;;;;;;36.45;19.98;;;4.20;82.90;;;;;;5132769;27;20042;-73
2020/12/09 10:33:37;;;;;;;41.47;22.13;;;4.30;82.80;;;;;;5134029;27;20106;-74
2020/12/09 10:36:04;;;;;;;43.90;22.23;;;4.30;82.70;;;;;;5134183;27;20061;-74
2020/12/09 10:38:32;;;;;;;40.17;21.67;;;4.40;82.60;;;;;;5132625;27;20068;-74
2020/12/09 10:40:58;;;;;;;44.63;21.08;;;4.40;82.60;;;;;;5132614;27;20030;-73
2020/12/09 10:43:24;;;;;;;38.72;21.55;;;4.40;82.50;;;;;;5133544;27;20023;-74
2020/12/09 10:45:50;;;;;;;40.78;20.17;;;4.40;82.40;;;;;;5132387;27;20029;-73
2020/12/09 10:48:16;;;;;;;35.28;20.45;;;4.40;82.30;;;;;;5133842;27;20106;-75
2020/12/09 10:50:42;;;;;;;36.35;19.73;;;4.40;82.40;;;;;;5132576;27;20356;-74
2020/12/09 10:53:07;;;;;;;42.15;17.67;;;4.30;82.30;;;;;;5132109;27;20019;-74
2020/12/09 10:55:33;;;;;;;33.05;18.92;;;4.30;82.30;;;;;;5133665;28;20034;-74
2020/12/09 10:57:59;;;;;;;31.88;19.10;;;4.10;82.30;;;;;;5132636;28;20016;-73
2020/12/09 11:00:24;;;;;;;31.98;17.63;;;4.10;82.60;;;;;;5132473;28;20019;-73
2020/12/09 11:02:50;;;;;;;37.17;19.67;;;4.10;82.70;;;;;;5132744;28;20157;-73
2020/12/09 11:05:16;;;;;;;33.95;19.20;;;4.10;82.60;;;;;;5132628;28;20486;-73
2020/12/09 11:07:41;;;;;;;38.65;19.35;;;4.10;82.80;;;;;;5133937;28;20019;-73
2020/12/09 11:10:07;;;;;;;46.47;20.65;;;4.10;82.80;;;;;;5134235;28;20098;-73
2020/12/09 11:12:32;;;;;;;31.77;18.02;;;4.10;82.60;;;;;;5132507;28;20405;-73
2020/12/09 11:14:59;;;;;;;34.58;17.80;;;4.10;82.50;;;;;;5133768;28;20095;-73
2020/12/09 11:17:25;;;;;;;33.90;18.20;;;4.00;82.60;;;;;;5133894;27;20015;-73
2020/12/09 11:19:51;;;;;;;34.00;18.90;;;4.10;82.80;;;;;;5133918;27;20023;-74
2020/12/09 11:22:17;;;;;;;42.00;18.67;;;4.10;82.80;;;;;;5133746;28;20034;-73
2020/12/09 11:24:43;;;;;;;37.05;20.55;;;4.10;82.60;;;;;;5132257;28;20023;-73
2020/12/09 11:27:09;;;;;;;33.55;18.48;;;4.10;82.60;;;;;;5132508;28;20023;-73
2020/12/09 11:29:35;;;;;;;40.83;15.93;;;4.10;82.60;;;;;;5132049;28;20031;-73
2020/12/09 11:32:01;;;;;;;32.10;18.15;;;4.10;82.50;;;;;;5121435;28;20040;-73
2020/12/09 11:34:26;;;;;;;34.60;18.38;;;4.00;82.60;;;;;;5111437;28;20596;-73
2020/12/09 11:37:00;;;;;;;35.85;20.02;;;3.90;82.70;;;;;;5111489;28;20019;-73
2020/12/09 11:39:26;;;;;;;31.42;18.55;;;3.90;82.80;;;;;;5112902;28;20046;-73
2020/12/09 11:41:52;;;;;;;25.13;14.32;;;4.00;82.80;;;;;;5112819;28;20020;-73
2020/12/09 11:44:18;;;;;;;21.10;11.95;;;4.00;82.70;;;;;;5111406;28;20031;-73
2020/12/09 11:46:43;;;;;;;26.73;15.20;;;4.00;83.10;;;;;;5111567;28;20016;-73
2020/12/09 11:49:09;;;;;;;26.75;14.57;;;3.90;83.40;;;;;;5111339;28;20375;-73
2020/12/09 11:51:35;;;;;;;30.52;14.93;;;3.90;83.50;;;;;;5112885;28;20028;-74
2020/12/09 11:54:00;;;;;;;30.85;16.00;;;3.90;83.50;;;;;;5112613;28;20348;-74
2020/12/09 11:56:29;;;;;;;31.80;16.90;;;3.80;83.30;;;;;;5111705;28;20099;-74
2020/12/09 11:58:55;;;;;;;36.90;18.05;;;3.80;83.10;;;;;;5112679;28;20099;-74
2020/12/09 12:01:21;;;;;;;36.58;17.42;;;3.90;83.20;;;;;;5111346;28;20078;-73
2020/12/09 12:03:47;;;;;;;32.83;17.00;;;3.90;83.10;;;;;;5113066;28;20023;-74
2020/12/09 12:06:24;;;;;;;40.50;18.45;;;3.90;83.10;;;;;;5111358;28;20039;-74
2020/12/09 12:08:51;;;;;;;31.73;15.48;;;3.90;83.00;;;;;;5114938;28;20052;-74
2020/12/09 12:11:19;;;;;;;33.30;16.15;;;3.90;82.90;;;;;;5116415;28;20181;-74
2020/12/09 12:13:45;;;;;;;35.50;16.15;;;3.90;83.00;;;;;;5115327;28;20019;-75
2020/12/09 12:16:21;;;;;;;31.20;16.42;;;3.90;82.90;;;;;;5116308;28;20421;-75
2020/12/09 12:18:47;;;;;;;29.77;14.18;;;4.00;83.00;;;;;;5115141;28;20039;-75
2020/12/09 12:21:23;;;;;;;35.85;17.25;;;4.00;83.00;;;;;;5114789;28;20172;-75
2020/12/09 12:23:49;;;;;;;37.05;17.33;;;4.00;83.00;;;;;;5114693;28;20494;-74
2020/12/09 12:26:20;;;;;;;37.47;17.67;;;4.00;82.90;;;;;;5114508;28;20049;-74
2020/12/09 12:28:46;;;;;;;41.75;18.40;;;4.00;82.90;;;;;;5114451;28;20054;-75
2020/12/09 12:31:15;;;;;;;34.20;17.08;;;4.00;82.90;;;;;;5118100;27;20041;-74
2020/12/09 12:33:41;;;;;;;38.97;18.63;;;4.00;82.90;;;;;;5135095;27;20124;-74
2020/12/09 12:36:07;;;;;;;39.75;19.55;;;4.10;82.90;;;;;;5135008;27;20052;-75
2020/12/09 12:38:33;;;;;;;39.38;18.05;;;4.10;82.90;;;;;;5134988;27;20089;-74
2020/12/09 12:40:59;;;;;;;44.58;20.92;;;4.10;82.80;;;;;;5136298;27;20478;-74
2020/12/09 12:43:25;;;;;;;46.40;20.83;;;4.00;82.80;;;;;;5136260;27;20027;-75
2020/12/09 12:45:50;;;;;;;43.92;21.02;;;4.10;82.90;;;;;;5134717;27;20027;-74
2020/12/09 12:48:16;;;;;;;46.40;21.42;;;4.10;82.90;;;;;;5134725;27;20019;-74